createdAt,value
2022-08-03T00:04:47.293Z,100329.72
2022-08-03T00:14:52.493Z,100333.13
2022-08-03T00:24:57.996Z,100329.59
2022-08-03T00:35:08.114Z,100327.81
2022-08-03T00:45:13.639Z,100319.13
2022-08-03T00:55:18.895Z,100331.00
2022-08-03T01:05:23.694Z,100329.28
2022-08-03T01:15:36.303Z,100328.28
2022-08-03T01:26:02.013Z,100317.03
2022-08-03T01:36:14.988Z,100316.28
2022-08-03T01:46:20.567Z,100321.19
2022-08-03T01:56:28.304Z,100308.31
2022-08-03T02:07:01.318Z,100303.00
2022-08-03T02:17:01.804Z,100304.72
2022-08-03T02:27:11.241Z,100306.44
2022-08-03T02:37:19.594Z,100305.72
2022-08-03T02:47:24.143Z,100308.91
2022-08-03T02:57:31.909Z,100305.81
2022-08-03T03:07:51.328Z,100302.63
2022-08-03T03:17:58.333Z,100294.16
2022-08-03T03:28:02.923Z,100288.22
2022-08-03T03:38:08.207Z,100314.59
2022-08-03T03:48:12.466Z,100311.16
2022-08-03T03:58:17.519Z,100315.53
2022-08-03T04:08:52.375Z,100311.06
2022-08-03T04:19:09.666Z,100303.22
2022-08-03T04:29:14.817Z,100309.09
2022-08-03T04:39:26.542Z,100309.47
2022-08-03T04:49:31.216Z,100316.25
2022-08-03T04:59:36.355Z,100325.84
2022-08-03T05:09:52.472Z,100332.00
2022-08-03T05:19:58.411Z,100336.03
2022-08-03T05:30:30.753Z,100335.41
2022-08-03T05:40:27.435Z,100336.47
2022-08-03T05:50:31.218Z,100340.84
2022-08-03T06:00:36.336Z,100328.22
2022-08-03T06:10:40.072Z,100335.94
2022-08-03T06:20:45.443Z,100331.69
2022-08-03T06:30:53.352Z,100325.59
2022-08-03T06:40:58.760Z,100322.06
2022-08-03T06:51:02.464Z,100323.50
2022-08-03T07:01:11.983Z,100319.72
2022-08-03T07:11:15.730Z,100328.16
2022-08-03T07:21:21.169Z,100325.16
2022-08-03T07:31:24.980Z,100314.91
2022-08-03T07:41:30.171Z,100320.75
2022-08-03T07:51:33.943Z,100316.03
2022-08-03T08:01:39.118Z,100314.66
2022-08-03T08:11:43.194Z,100293.16
2022-08-03T08:21:53.783Z,100285.72
2022-08-03T08:32:07.410Z,100284.84
2022-08-03T08:42:13.009Z,100288.41
2022-08-03T08:52:24.950Z,100283.13
2022-08-03T09:02:32.380Z,100275.25
2022-08-03T09:12:42.604Z,100273.53
2022-08-03T09:23:19.097Z,100259.19
2022-08-03T09:33:36.248Z,100254.25
2022-08-03T09:43:48.667Z,100246.00
2022-08-03T09:53:59.034Z,100250.09
2022-08-03T10:04:05.650Z,100242.06
2022-08-03T10:14:11.204Z,100235.53
2022-08-03T10:24:25.576Z,100216.28
2022-08-03T10:34:37.111Z,100199.28
2022-08-03T10:44:44.485Z,100188.56
2022-08-03T10:55:07.561Z,100182.94
2022-08-03T11:05:33.306Z,100173.75
2022-08-03T11:15:38.726Z,100155.88
2022-08-03T11:26:18.650Z,100156.25
2022-08-03T11:36:32.216Z,100143.19
2022-08-03T11:46:39.577Z,100153.13
2022-08-03T11:56:49.467Z,100129.22
2022-08-03T12:07:03.700Z,100127.41
2022-08-03T12:17:07.611Z,100122.06
2022-08-03T12:27:13.401Z,100111.56
2022-08-03T12:37:22.440Z,100111.78
2022-08-03T12:47:28.296Z,100101.03
2022-08-03T12:57:42.848Z,100097.13
2022-08-03T13:07:48.383Z,100090.94
2022-08-03T13:17:52.234Z,100087.44
2022-08-03T13:28:04.517Z,100080.66
2022-08-03T13:38:09.820Z,100057.94
2022-08-03T13:48:15.096Z,100064.13
2022-08-03T13:58:38.875Z,100047.50
2022-08-03T14:08:45.099Z,100051.13
2022-08-03T14:18:48.933Z,100042.97
2022-08-03T14:28:56.265Z,100032.88
2022-08-03T14:39:01.467Z,100010.09
2022-08-03T14:50:36.289Z,100003.56
2022-08-03T14:59:55.601Z,99997.13
2022-08-03T15:09:55.863Z,99990.25
2022-08-03T15:20:17.090Z,99974.38
2022-08-03T15:30:23.345Z,99966.69
2022-08-03T15:40:27.044Z,99953.72
2022-08-03T15:50:32.193Z,99956.63
2022-08-03T16:00:36.171Z,99943.75
2022-08-03T16:10:41.485Z,99920.75
2022-08-03T16:20:45.836Z,99931.88
2022-08-03T16:30:50.998Z,99928.41
2022-08-03T16:40:54.801Z,99921.25
2022-08-03T16:51:00.250Z,99923.09
2022-08-03T17:01:20.819Z,99930.47
2022-08-03T17:11:27.881Z,99927.31
2022-08-03T17:21:37.682Z,99913.13
2022-08-03T17:31:48.764Z,99925.84
2022-08-03T17:41:53.406Z,99927.56
2022-08-03T17:52:04.875Z,99935.88
2022-08-03T18:02:47.748Z,99939.00
2022-08-03T18:13:15.774Z,99946.44
2022-08-03T18:23:36.360Z,99957.00
2022-08-03T18:34:17.564Z,99958.28
2022-08-03T18:44:37.585Z,99960.53
2022-08-03T18:55:02.891Z,99972.31
2022-08-03T19:05:12.197Z,99970.97
2022-08-03T19:15:17.497Z,99972.13
2022-08-03T19:25:40.622Z,99990.94
2022-08-03T19:35:55.604Z,99993.22
2022-08-03T19:46:14.326Z,99997.50
2022-08-03T19:56:25.156Z,99999.78
2022-08-03T20:06:29.253Z,99999.84
2022-08-03T20:16:34.478Z,100001.09
2022-08-03T20:26:38.858Z,99992.22
2022-08-03T20:36:48.813Z,99991.63
2022-08-03T20:47:00.290Z,100005.94
2022-08-03T20:57:09.599Z,100001.78
2022-08-03T21:07:22.930Z,100005.41
2022-08-03T21:17:40.535Z,99999.59
2022-08-03T21:27:47.077Z,99997.81
2022-08-03T21:38:12.729Z,99997.41
2022-08-03T21:48:17.852Z,99991.72
2022-08-03T21:58:29.568Z,99993.66
2022-08-03T22:08:35.847Z,99992.19
2022-08-03T22:18:44.252Z,99997.69
2022-08-03T22:28:48.555Z,99981.56
2022-08-03T22:38:54.311Z,99990.38
2022-08-03T22:48:58.844Z,100000.00
2022-08-03T22:59:40.807Z,100002.69
2022-08-03T23:09:31.900Z,100025.00
2022-08-03T23:19:44.562Z,100022.53
2022-08-03T23:29:49.151Z,100013.34
2022-08-03T23:39:55.956Z,100022.13
2022-08-03T23:49:59.789Z,100011.31
